Airfield :
LOGIN :

Register | Disclaimer

   EN    FR    IT 

 










Legend :    VFR   Marginal VFR   IFR   Intensive IFR   Very Intensive IFR
Visi :
Ceiling :
>= 8 km
>= 3000ft
5 to 8 km
1000 to 3000 ft
1500m to 5 km
500 to 1000 ft
800 to 1500m
200 to 500 ft
< 800m
< 200 ft
Symbols :   Thunderstorms  Fog  Heavy snow  Heavy precipitations  Wind > 20 kt
SIGMETs :     Misc.  Thunderstorms  Icing  Turbulence  Mountain Waves  Volcanic Ashes







- Airport Elevation : 106 ft
- IATA code : NRN


EDLV - Weeze

CURRENT METAR :
  • 181520Z 24010KT 200V260 CAVOK 21/16 Q1020

EXPIRED METARs :
  • 181450Z 24010KT 9999 BKN034 20/16 Q1020
  • 181420Z 23009KT 9999 BKN032 20/16 Q1020
  • 181350Z 24010KT 9999 BKN045 20/17 Q1020
  • 181320Z 23010KT 200V260 9999 BKN049 20/17 Q1020
  • 181250Z 24011KT 9999 BKN020 18/17 Q1020

TAF TAF EDLV
Valid from the 18 at 12:00 until the 19 at 12:00 UTC


181100Z 1812/1912 22012KT 9999 SCT015 BKN035
BECMG 1817/1820 22005KT
BECMG 1905/1907 BKN010
BECMG 1908/1911 BKN020
No reported NOTAMs for that airfield.



MET'MAP, your aeronautical weather chart ! - Copyright ORBIFLY December 2007 - Disclaimer

ORBIFLY MET'MAP TEAM :

Programming & Development : Alexandra Zaïnal
Concept & Development : Baudouin d'Aumeries
Co-Development & Prog : Marc-Olivier Méhu
Technical & hardware support : Manuel Goepfert

Contact : metmap@orbifly.com




SOURCES & CREDITS :

   NOAA